sensor_id;sensor_type;location;lat;lon;timestamp;pressure;altitude;pressure_sealevel;temperature;humidity
17438;BME280;70275;52.198;5.422;2023-05-24T00:00:10;102377.53;;;10.39;68.41
17438;BME280;70275;52.198;5.422;2023-05-24T00:02:41;102371.22;;;10.41;68.19
17438;BME280;70275;52.198;5.422;2023-05-24T00:05:10;102370.28;;;9.97;69.67
17438;BME280;70275;52.198;5.422;2023-05-24T00:07:44;102368.22;;;10.02;69.79
17438;BME280;70275;52.198;5.422;2023-05-24T00:10:13;102368.91;;;10.06;69.24
17438;BME280;70275;52.198;5.422;2023-05-24T00:12:42;102363.88;;;10.17;70.10
17438;BME280;70275;52.198;5.422;2023-05-24T00:15:11;102357.06;;;10.27;69.27
17438;BME280;70275;52.198;5.422;2023-05-24T00:17:40;102363.41;;;10.24;69.02
17438;BME280;70275;52.198;5.422;2023-05-24T00:20:10;102356.97;;;9.99;70.05
17438;BME280;70275;52.198;5.422;2023-05-24T00:22:39;102355.25;;;9.98;69.66
17438;BME280;70275;52.198;5.422;2023-05-24T00:25:11;102354.19;;;10.16;69.86
17438;BME280;70275;52.198;5.422;2023-05-24T00:27:40;102358.59;;;10.31;68.57
17438;BME280;70275;52.198;5.422;2023-05-24T00:30:10;102363.38;;;10.40;67.87
17438;BME280;70275;52.198;5.422;2023-05-24T00:32:39;102356.50;;;10.22;68.05
17438;BME280;70275;52.198;5.422;2023-05-24T00:35:09;102352.31;;;10.02;69.20
17438;BME280;70275;52.198;5.422;2023-05-24T00:37:37;102353.94;;;10.05;69.32
17438;BME280;70275;52.198;5.422;2023-05-24T00:40:12;102343.44;;;10.03;68.81
17438;BME280;70275;52.198;5.422;2023-05-24T00:42:41;102352.59;;;9.98;69.90
17438;BME280;70275;52.198;5.422;2023-05-24T00:45:11;102354.88;;;9.58;70.92
17438;BME280;70275;52.198;5.422;2023-05-24T00:47:40;102339.66;;;9.77;70.38
17438;BME280;70275;52.198;5.422;2023-05-24T00:50:11;102344.44;;;9.55;70.97
17438;BME280;70275;52.198;5.422;2023-05-24T00:52:42;102346.03;;;9.73;70.76
17438;BME280;70275;52.198;5.422;2023-05-24T00:55:14;102343.72;;;9.99;70.02
17438;BME280;70275;52.198;5.422;2023-05-24T00:57:43;102338.44;;;9.99;70.21
17438;BME280;70275;52.198;5.422;2023-05-24T01:00:13;102330.41;;;9.69;70.62
17438;BME280;70275;52.198;5.422;2023-05-24T01:02:42;102339.41;;;9.51;71.55
17438;BME280;70275;52.198;5.422;2023-05-24T01:05:13;102340.78;;;9.42;71.91
17438;BME280;70275;52.198;5.422;2023-05-24T01:07:54;102330.38;;;9.24;72.24
17438;BME280;70275;52.198;5.422;2023-05-24T01:10:45;102341.81;;;9.40;72.64
17438;BME280;70275;52.198;5.422;2023-05-24T01:13:27;102348.97;;;9.22;72.50
17438;BME280;70275;52.198;5.422;2023-05-24T01:16:04;102345.31;;;9.40;72.04
17438;BME280;70275;52.198;5.422;2023-05-24T01:18:41;102354.59;;;9.32;72.03
17438;BME280;70275;52.198;5.422;2023-05-24T01:21:24;102348.97;;;9.22;72.81
17438;BME280;70275;52.198;5.422;2023-05-24T01:24:09;102347.56;;;8.99;73.52
17438;BME280;70275;52.198;5.422;2023-05-24T01:27:06;102339.25;;;8.90;74.17
17438;BME280;70275;52.198;5.422;2023-05-24T01:29:35;102352.56;;;8.88;74.55
17438;BME280;70275;52.198;5.422;2023-05-24T01:32:06;102349.84;;;8.90;74.59
17438;BME280;70275;52.198;5.422;2023-05-24T01:34:36;102342.03;;;8.71;75.10
17438;BME280;70275;52.198;5.422;2023-05-24T01:37:05;102341.19;;;8.71;74.83
17438;BME280;70275;52.198;5.422;2023-05-24T01:39:34;102349.44;;;8.65;75.08
17438;BME280;70275;52.198;5.422;2023-05-24T01:42:18;102338.66;;;8.52;75.24
17438;BME280;70275;52.198;5.422;2023-05-24T01:45:01;102352.56;;;8.56;75.15
17438;BME280;70275;52.198;5.422;2023-05-24T01:47:44;102348.06;;;8.41;75.60
17438;BME280;70275;52.198;5.422;2023-05-24T01:50:24;102336.13;;;8.33;75.84
17438;BME280;70275;52.198;5.422;2023-05-24T01:52:57;102340.88;;;8.27;76.13
17438;BME280;70275;52.198;5.422;2023-05-24T01:55:32;102345.47;;;8.22;76.07
17438;BME280;70275;52.198;5.422;2023-05-24T01:58:06;102343.00;;;8.19;76.24
17438;BME280;70275;52.198;5.422;2023-05-24T02:00:39;102334.91;;;8.05;76.63
17438;BME280;70275;52.198;5.422;2023-05-24T02:03:09;102331.94;;;8.11;76.88
17438;BME280;70275;52.198;5.422;2023-05-24T02:05:39;102331.03;;;8.12;76.83
17438;BME280;70275;52.198;5.422;2023-05-24T02:08:09;102335.59;;;8.25;76.61
17438;BME280;70275;52.198;5.422;2023-05-24T02:10:38;102329.63;;;8.22;76.85
17438;BME280;70275;52.198;5.422;2023-05-24T02:13:10;102329.81;;;8.36;76.22
17438;BME280;70275;52.198;5.422;2023-05-24T02:15:41;102331.44;;;8.38;75.88
17438;BME280;70275;52.198;5.422;2023-05-24T02:18:10;102329.88;;;8.17;76.60
17438;BME280;70275;52.198;5.422;2023-05-24T02:20:39;102325.75;;;8.12;77.00
17438;BME280;70275;52.198;5.422;2023-05-24T02:23:08;102318.75;;;8.11;77.06
17438;BME280;70275;52.198;5.422;2023-05-24T02:25:37;102317.44;;;8.19;77.15
17438;BME280;70275;52.198;5.422;2023-05-24T02:28:08;102321.94;;;8.17;77.13
17438;BME280;70275;52.198;5.422;2023-05-24T02:30:37;102324.75;;;8.14;77.89
17438;BME280;70275;52.198;5.422;2023-05-24T02:33:09;102326.00;;;8.24;77.87
17438;BME280;70275;52.198;5.422;2023-05-24T02:35:39;102327.69;;;8.25;77.54
17438;BME280;70275;52.198;5.422;2023-05-24T02:38:08;102328.69;;;8.23;77.82
17438;BME280;70275;52.198;5.422;2023-05-24T02:40:37;102326.13;;;8.21;77.81
17438;BME280;70275;52.198;5.422;2023-05-24T02:43:09;102330.69;;;8.18;77.83
17438;BME280;70275;52.198;5.422;2023-05-24T02:45:38;102329.09;;;8.32;77.62
17438;BME280;70275;52.198;5.422;2023-05-24T02:48:07;102331.41;;;8.21;77.74
17438;BME280;70275;52.198;5.422;2023-05-24T02:50:36;102336.25;;;8.30;77.40
17438;BME280;70275;52.198;5.422;2023-05-24T02:53:05;102329.56;;;8.23;77.67
17438;BME280;70275;52.198;5.422;2023-05-24T02:55:34;102338.25;;;8.25;77.98
17438;BME280;70275;52.198;5.422;2023-05-24T02:58:03;102336.88;;;8.35;77.42
17438;BME280;70275;52.198;5.422;2023-05-24T03:00:35;102334.09;;;8.38;77.37
17438;BME280;70275;52.198;5.422;2023-05-24T03:03:04;102337.41;;;8.42;77.52
17438;BME280;70275;52.198;5.422;2023-05-24T03:05:33;102334.69;;;8.44;77.26
17438;BME280;70275;52.198;5.422;2023-05-24T03:08:02;102334.88;;;8.41;77.36
17438;BME280;70275;52.198;5.422;2023-05-24T03:10:31;102336.50;;;8.43;77.34
17438;BME280;70275;52.198;5.422;2023-05-24T03:13:00;102331.75;;;8.50;77.48
17438;BME280;70275;52.198;5.422;2023-05-24T03:15:29;102332.13;;;8.59;77.44
17438;BME280;70275;52.198;5.422;2023-05-24T03:18:00;102326.06;;;8.57;77.29
17438;BME280;70275;52.198;5.422;2023-05-24T03:20:29;102322.47;;;8.58;77.52
17438;BME280;70275;52.198;5.422;2023-05-24T03:22:58;102319.28;;;8.69;77.21
17438;BME280;70275;52.198;5.422;2023-05-24T03:25:27;102314.44;;;8.77;77.04
17438;BME280;70275;52.198;5.422;2023-05-24T03:27:56;102314.09;;;8.83;76.83
17438;BME280;70275;52.198;5.422;2023-05-24T03:30:27;102309.63;;;9.00;76.63
17438;BME280;70275;52.198;5.422;2023-05-24T03:32:56;102309.53;;;9.02;76.69
17438;BME280;70275;52.198;5.422;2023-05-24T03:35:28;102301.78;;;9.15;76.45
17438;BME280;70275;52.198;5.422;2023-05-24T03:37:56;102311.09;;;9.22;76.24
17438;BME280;70275;52.198;5.422;2023-05-24T03:40:25;102315.53;;;9.21;76.24
17438;BME280;70275;52.198;5.422;2023-05-24T03:42:57;102317.25;;;9.22;76.31
17438;BME280;70275;52.198;5.422;2023-05-24T03:45:26;102316.88;;;9.28;76.26
17438;BME280;70275;52.198;5.422;2023-05-24T03:47:55;102315.41;;;9.23;76.45
17438;BME280;70275;52.198;5.422;2023-05-24T03:50:23;102315.00;;;9.30;76.52
17438;BME280;70275;52.198;5.422;2023-05-24T03:52:55;102312.28;;;9.47;75.63
17438;BME280;70275;52.198;5.422;2023-05-24T03:55:24;102319.94;;;9.67;75.25
17438;BME280;70275;52.198;5.422;2023-05-24T03:57:53;102324.63;;;9.62;75.48
17438;BME280;70275;52.198;5.422;2023-05-24T04:00:22;102325.13;;;9.69;74.57
17438;BME280;70275;52.198;5.422;2023-05-24T04:02:51;102312.19;;;9.33;75.51
17438;BME280;70275;52.198;5.422;2023-05-24T04:05:20;102319.53;;;9.44;75.28
17438;BME280;70275;52.198;5.422;2023-05-24T04:07:54;102316.53;;;9.34;75.60
17438;BME280;70275;52.198;5.422;2023-05-24T04:10:23;102308.00;;;9.45;75.35
17438;BME280;70275;52.198;5.422;2023-05-24T04:12:52;102311.59;;;9.44;75.26
17438;BME280;70275;52.198;5.422;2023-05-24T04:15:22;102310.91;;;9.40;75.78
17438;BME280;70275;52.198;5.422;2023-05-24T04:17:51;102316.38;;;9.37;75.90
17438;BME280;70275;52.198;5.422;2023-05-24T04:20:21;102307.00;;;9.47;75.58
17438;BME280;70275;52.198;5.422;2023-05-24T04:22:54;102316.72;;;9.47;75.64
17438;BME280;70275;52.198;5.422;2023-05-24T04:25:23;102318.34;;;9.49;75.52
17438;BME280;70275;52.198;5.422;2023-05-24T04:27:52;102317.06;;;9.56;75.38
17438;BME280;70275;52.198;5.422;2023-05-24T04:30:21;102317.38;;;9.50;75.45
17438;BME280;70275;52.198;5.422;2023-05-24T04:32:50;102319.97;;;9.52;75.84
17438;BME280;70275;52.198;5.422;2023-05-24T04:35:19;102326.69;;;9.57;75.69
17438;BME280;70275;52.198;5.422;2023-05-24T04:37:48;102317.97;;;9.55;75.54
17438;BME280;70275;52.198;5.422;2023-05-24T04:40:20;102319.34;;;9.62;74.93
17438;BME280;70275;52.198;5.422;2023-05-24T04:42:49;102325.22;;;9.67;75.00
17438;BME280;70275;52.198;5.422;2023-05-24T04:45:18;102325.38;;;9.64;74.98
17438;BME280;70275;52.198;5.422;2023-05-24T04:47:47;102324.47;;;9.65;75.09
17438;BME280;70275;52.198;5.422;2023-05-24T04:50:16;102324.69;;;9.76;74.75
17438;BME280;70275;52.198;5.422;2023-05-24T04:52:45;102334.09;;;9.82;74.89
17438;BME280;70275;52.198;5.422;2023-05-24T04:55:14;102328.88;;;9.80;75.01
17438;BME280;70275;52.198;5.422;2023-05-24T04:57:46;102327.78;;;9.85;74.98
17438;BME280;70275;52.198;5.422;2023-05-24T05:00:16;102323.56;;;9.80;75.27
17438;BME280;70275;52.198;5.422;2023-05-24T05:02:46;102323.50;;;9.82;75.22
17438;BME280;70275;52.198;5.422;2023-05-24T05:05:15;102328.59;;;10.01;74.42
17438;BME280;70275;52.198;5.422;2023-05-24T05:07:45;102325.34;;;9.96;74.82
17438;BME280;70275;52.198;5.422;2023-05-24T05:10:14;102329.34;;;10.03;74.72
17438;BME280;70275;52.198;5.422;2023-05-24T05:12:45;102332.59;;;10.08;74.54
17438;BME280;70275;52.198;5.422;2023-05-24T05:15:14;102323.19;;;10.02;74.93
17438;BME280;70275;52.198;5.422;2023-05-24T05:17:43;102330.69;;;10.10;74.52
17438;BME280;70275;52.198;5.422;2023-05-24T05:20:12;102329.59;;;10.14;74.16
17438;BME280;70275;52.198;5.422;2023-05-24T05:22:45;102335.75;;;10.14;74.09
17438;BME280;70275;52.198;5.422;2023-05-24T05:25:14;102331.16;;;10.32;74.06
17438;BME280;70275;52.198;5.422;2023-05-24T05:27:46;102342.00;;;10.43;73.70
17438;BME280;70275;52.198;5.422;2023-05-24T05:30:15;102343.13;;;10.53;73.76
17438;BME280;70275;52.198;5.422;2023-05-24T05:32:44;102350.69;;;10.45;73.71
17438;BME280;70275;52.198;5.422;2023-05-24T05:35:13;102346.06;;;10.63;73.35
17438;BME280;70275;52.198;5.422;2023-05-24T05:37:42;102351.28;;;10.64;73.36
17438;BME280;70275;52.198;5.422;2023-05-24T05:40:11;102344.19;;;10.65;73.33
17438;BME280;70275;52.198;5.422;2023-05-24T05:42:40;102348.53;;;10.66;73.30
17438;BME280;70275;52.198;5.422;2023-05-24T05:45:12;102349.03;;;10.72;73.00
17438;BME280;70275;52.198;5.422;2023-05-24T05:47:41;102342.59;;;10.90;73.23
17438;BME280;70275;52.198;5.422;2023-05-24T05:50:10;102343.34;;;11.06;73.00
17438;BME280;70275;52.198;5.422;2023-05-24T05:52:39;102347.78;;;11.06;72.56
17438;BME280;70275;52.198;5.422;2023-05-24T05:55:09;102338.78;;;11.08;72.71
17438;BME280;70275;52.198;5.422;2023-05-24T05:57:39;102349.00;;;11.29;72.37
17438;BME280;70275;52.198;5.422;2023-05-24T06:00:12;102345.06;;;11.48;71.83
17438;BME280;70275;52.198;5.422;2023-05-24T06:02:41;102337.72;;;11.66;70.71
17438;BME280;70275;52.198;5.422;2023-05-24T06:05:10;102335.84;;;11.68;70.35
17438;BME280;70275;52.198;5.422;2023-05-24T06:07:39;102341.69;;;11.87;70.34
17438;BME280;70275;52.198;5.422;2023-05-24T06:10:10;102351.75;;;11.82;69.84
17438;BME280;70275;52.198;5.422;2023-05-24T06:12:39;102347.97;;;11.99;69.29
17438;BME280;70275;52.198;5.422;2023-05-24T06:15:11;102337.06;;;12.03;69.13
17438;BME280;70275;52.198;5.422;2023-05-24T06:17:40;102355.53;;;11.64;69.54
17438;BME280;70275;52.198;5.422;2023-05-24T06:20:12;102355.53;;;11.64;69.89
17438;BME280;70275;52.198;5.422;2023-05-24T06:22:41;102363.31;;;11.81;69.70
17438;BME280;70275;52.198;5.422;2023-05-24T06:25:11;102355.44;;;11.79;69.62
17438;BME280;70275;52.198;5.422;2023-05-24T06:27:44;102365.78;;;11.84;67.79
17438;BME280;70275;52.198;5.422;2023-05-24T06:30:16;102360.47;;;11.84;68.60
17438;BME280;70275;52.198;5.422;2023-05-24T06:32:45;102362.00;;;11.74;68.20
17438;BME280;70275;52.198;5.422;2023-05-24T06:35:34;102355.84;;;12.00;67.80
17438;BME280;70275;52.198;5.422;2023-05-24T06:38:03;102367.56;;;12.10;66.91
17438;BME280;70275;52.198;5.422;2023-05-24T06:40:32;102365.50;;;12.40;66.76
17438;BME280;70275;52.198;5.422;2023-05-24T06:43:02;102335.97;;;12.06;67.26
17438;BME280;70275;52.198;5.422;2023-05-24T06:45:34;102357.34;;;12.56;66.16
17438;BME280;70275;52.198;5.422;2023-05-24T06:48:03;102366.16;;;12.57;65.76
17438;BME280;70275;52.198;5.422;2023-05-24T06:50:32;102365.41;;;12.67;64.51
17438;BME280;70275;52.198;5.422;2023-05-24T06:53:02;102361.56;;;12.96;63.65
17438;BME280;70275;52.198;5.422;2023-05-24T06:55:31;102367.56;;;12.75;64.36
17438;BME280;70275;52.198;5.422;2023-05-24T06:58:00;102362.44;;;12.46;63.62
17438;BME280;70275;52.198;5.422;2023-05-24T07:00:32;102375.94;;;12.56;63.61
17438;BME280;70275;52.198;5.422;2023-05-24T07:03:02;102363.38;;;12.45;63.76
17438;BME280;70275;52.198;5.422;2023-05-24T07:05:31;102375.63;;;12.61;63.67
17438;BME280;70275;52.198;5.422;2023-05-24T07:08:01;102372.56;;;12.79;62.91
17438;BME280;70275;52.198;5.422;2023-05-24T07:10:29;102376.50;;;12.86;62.96
17438;BME280;70275;52.198;5.422;2023-05-24T07:12:58;102380.75;;;12.64;63.28
17438;BME280;70275;52.198;5.422;2023-05-24T07:15:29;102372.00;;;12.49;63.92
17438;BME280;70275;52.198;5.422;2023-05-24T07:18:00;102374.16;;;12.57;64.35
17438;BME280;70275;52.198;5.422;2023-05-24T07:20:29;102380.53;;;12.67;62.63
17438;BME280;70275;52.198;5.422;2023-05-24T07:22:58;102361.59;;;12.59;63.08
17438;BME280;70275;52.198;5.422;2023-05-24T07:25:28;102368.31;;;12.77;62.65
17438;BME280;70275;52.198;5.422;2023-05-24T07:27:58;102372.78;;;12.89;62.70
17438;BME280;70275;52.198;5.422;2023-05-24T07:30:27;102365.53;;;12.91;62.35
17438;BME280;70275;52.198;5.422;2023-05-24T07:32:56;102365.53;;;12.78;62.70
17438;BME280;70275;52.198;5.422;2023-05-24T07:35:28;102375.97;;;13.06;62.28
17438;BME280;70275;52.198;5.422;2023-05-24T07:37:57;102382.69;;;13.12;61.81
17438;BME280;70275;52.198;5.422;2023-05-24T07:40:26;102374.06;;;13.93;60.70
17438;BME280;70275;52.198;5.422;2023-05-24T07:42:55;102369.91;;;14.24;59.16
17438;BME280;70275;52.198;5.422;2023-05-24T07:45:24;102385.16;;;14.35;58.75
17438;BME280;70275;52.198;5.422;2023-05-24T07:47:53;102375.22;;;14.37;56.30
17438;BME280;70275;52.198;5.422;2023-05-24T07:50:22;102380.78;;;14.34;57.33
17438;BME280;70275;52.198;5.422;2023-05-24T07:52:55;102386.19;;;14.56;56.46
17438;BME280;70275;52.198;5.422;2023-05-24T07:55:24;102380.66;;;15.03;55.96
17438;BME280;70275;52.198;5.422;2023-05-24T07:57:53;102383.31;;;14.70;56.08
17438;BME280;70275;52.198;5.422;2023-05-24T08:00:22;102381.91;;;14.19;58.33
17438;BME280;70275;52.198;5.422;2023-05-24T08:02:51;102389.91;;;13.95;58.31
17438;BME280;70275;52.198;5.422;2023-05-24T08:05:21;102383.53;;;13.61;58.26
17438;BME280;70275;52.198;5.422;2023-05-24T08:07:50;102390.88;;;13.70;57.32
17438;BME280;70275;52.198;5.422;2023-05-24T08:10:23;102381.63;;;14.11;56.97
17438;BME280;70275;52.198;5.422;2023-05-24T08:12:53;102379.03;;;13.74;58.46
17438;BME280;70275;52.198;5.422;2023-05-24T08:15:22;102366.88;;;14.18;57.32
17438;BME280;70275;52.198;5.422;2023-05-24T08:17:51;102372.72;;;13.99;57.88
17438;BME280;70275;52.198;5.422;2023-05-24T08:20:20;102371.31;;;14.06;57.04
17438;BME280;70275;52.198;5.422;2023-05-24T08:22:49;102374.47;;;13.64;58.05
17438;BME280;70275;52.198;5.422;2023-05-24T08:25:18;102374.13;;;14.16;57.39
17438;BME280;70275;52.198;5.422;2023-05-24T08:27:50;102369.50;;;13.83;57.37
17438;BME280;70275;52.198;5.422;2023-05-24T08:30:19;102371.81;;;14.11;56.12
17438;BME280;70275;52.198;5.422;2023-05-24T08:32:48;102375.00;;;14.40;55.86
17438;BME280;70275;52.198;5.422;2023-05-24T08:35:17;102384.91;;;15.06;54.28
17438;BME280;70275;52.198;5.422;2023-05-24T08:37:46;102367.22;;;14.37;55.86
17438;BME280;70275;52.198;5.422;2023-05-24T08:40:15;102376.44;;;14.33;55.96
17438;BME280;70275;52.198;5.422;2023-05-24T08:42:45;102377.19;;;14.46;55.57
17438;BME280;70275;52.198;5.422;2023-05-24T08:45:20;102363.00;;;14.22;55.87
17438;BME280;70275;52.198;5.422;2023-05-24T08:47:50;102375.16;;;14.26;55.54
17438;BME280;70275;52.198;5.422;2023-05-24T08:50:20;102364.97;;;13.96;56.77
17438;BME280;70275;52.198;5.422;2023-05-24T08:52:51;102349.81;;;13.97;56.59
17438;BME280;70275;52.198;5.422;2023-05-24T08:55:21;102377.50;;;15.43;54.28
17438;BME280;70275;52.198;5.422;2023-05-24T08:57:50;102370.00;;;16.22;52.74
17438;BME280;70275;52.198;5.422;2023-05-24T09:00:23;102372.19;;;16.28;51.09
17438;BME280;70275;52.198;5.422;2023-05-24T09:02:52;102369.09;;;15.69;52.24
17438;BME280;70275;52.198;5.422;2023-05-24T09:05:24;102377.28;;;15.01;54.31
17438;BME280;70275;52.198;5.422;2023-05-24T09:07:55;102366.84;;;14.30;55.45
17438;BME280;70275;52.198;5.422;2023-05-24T09:10:28;102375.81;;;14.86;54.35
17438;BME280;70275;52.198;5.422;2023-05-24T09:13:02;102378.78;;;14.59;54.82
17438;BME280;70275;52.198;5.422;2023-05-24T09:15:35;102375.59;;;15.00;51.23
17438;BME280;70275;52.198;5.422;2023-05-24T09:18:04;102380.75;;;16.11;51.04
17438;BME280;70275;52.198;5.422;2023-05-24T09:20:36;102366.94;;;16.58;50.47
17438;BME280;70275;52.198;5.422;2023-05-24T09:23:05;102383.66;;;16.72;49.85
17438;BME280;70275;52.198;5.422;2023-05-24T09:25:35;102390.03;;;15.20;51.79
17438;BME280;70275;52.198;5.422;2023-05-24T09:28:05;102369.34;;;14.78;53.07
17438;BME280;70275;52.198;5.422;2023-05-24T09:30:38;102400.09;;;15.05;52.84
17438;BME280;70275;52.198;5.422;2023-05-24T09:33:07;102388.56;;;16.03;51.67
17438;BME280;70275;52.198;5.422;2023-05-24T09:35:36;102389.41;;;15.72;52.10
17438;BME280;70275;52.198;5.422;2023-05-24T09:38:05;102393.78;;;15.06;53.75
17438;BME280;70275;52.198;5.422;2023-05-24T09:40:35;102382.75;;;15.44;52.13
17438;BME280;70275;52.198;5.422;2023-05-24T09:43:06;102376.59;;;16.18;51.11
17438;BME280;70275;52.198;5.422;2023-05-24T09:45:44;102376.84;;;16.15;50.14
17438;BME280;70275;52.198;5.422;2023-05-24T09:48:15;102373.63;;;15.58;50.10
17438;BME280;70275;52.198;5.422;2023-05-24T09:50:58;102372.91;;;15.11;52.25
17438;BME280;70275;52.198;5.422;2023-05-24T09:53:28;102373.16;;;14.97;52.72
17438;BME280;70275;52.198;5.422;2023-05-24T09:55:58;102384.81;;;15.18;53.06
17438;BME280;70275;52.198;5.422;2023-05-24T09:58:29;102381.00;;;14.77;54.49
17438;BME280;70275;52.198;5.422;2023-05-24T10:01:09;102383.38;;;15.14;52.76
17438;BME280;70275;52.198;5.422;2023-05-24T10:03:51;102387.69;;;14.82;53.49
17438;BME280;70275;52.198;5.422;2023-05-24T10:06:21;102383.53;;;15.78;52.50
17438;BME280;70275;52.198;5.422;2023-05-24T10:08:51;102379.22;;;16.29;50.01
17438;BME280;70275;52.198;5.422;2023-05-24T10:11:22;102390.41;;;15.38;51.62
17438;BME280;70275;52.198;5.422;2023-05-24T10:13:51;102391.34;;;15.37;50.92
17438;BME280;70275;52.198;5.422;2023-05-24T10:16:23;102389.16;;;15.42;51.15
17438;BME280;70275;52.198;5.422;2023-05-24T10:18:52;102391.75;;;16.81;48.74
17438;BME280;70275;52.198;5.422;2023-05-24T10:21:23;102381.00;;;16.08;50.04
17438;BME280;70275;52.198;5.422;2023-05-24T10:23:58;102374.50;;;15.47;49.80
17438;BME280;70275;52.198;5.422;2023-05-24T10:26:30;102388.28;;;16.70;49.03
17438;BME280;70275;52.198;5.422;2023-05-24T10:29:07;102365.97;;;15.96;50.47
17438;BME280;70275;52.198;5.422;2023-05-24T10:31:42;102383.94;;;15.18;50.44
17438;BME280;70275;52.198;5.422;2023-05-24T10:34:12;102389.66;;;15.13;51.28
17438;BME280;70275;52.198;5.422;2023-05-24T10:36:43;102388.50;;;16.25;48.63
17438;BME280;70275;52.198;5.422;2023-05-24T10:39:12;102375.88;;;16.16;49.09
17438;BME280;70275;52.198;5.422;2023-05-24T10:41:42;102380.69;;;15.48;50.67
17438;BME280;70275;52.198;5.422;2023-05-24T10:44:12;102385.53;;;15.09;50.26
17438;BME280;70275;52.198;5.422;2023-05-24T10:47:19;102378.34;;;15.43;48.99
17438;BME280;70275;52.198;5.422;2023-05-24T10:49:50;102379.22;;;15.44;49.48
17438;BME280;70275;52.198;5.422;2023-05-24T10:52:20;102382.78;;;15.98;46.79
17438;BME280;70275;52.198;5.422;2023-05-24T10:55:05;102379.59;;;16.25;47.75
17438;BME280;70275;52.198;5.422;2023-05-24T10:57:36;102373.00;;;16.29;47.36
17438;BME280;70275;52.198;5.422;2023-05-24T11:00:28;102373.16;;;16.27;48.17
17438;BME280;70275;52.198;5.422;2023-05-24T11:03:08;102368.97;;;16.34;47.37
17438;BME280;70275;52.198;5.422;2023-05-24T11:05:50;102379.78;;;16.85;47.02
17438;BME280;70275;52.198;5.422;2023-05-24T11:08:24;102389.13;;;17.21;46.80
17438;BME280;70275;52.198;5.422;2023-05-24T11:11:07;102378.03;;;16.54;47.77
17438;BME280;70275;52.198;5.422;2023-05-24T11:13:38;102378.53;;;16.89;46.97
17438;BME280;70275;52.198;5.422;2023-05-24T11:16:08;102377.25;;;17.14;46.68
17438;BME280;70275;52.198;5.422;2023-05-24T11:18:54;102386.94;;;17.45;46.75
17438;BME280;70275;52.198;5.422;2023-05-24T11:21:23;102374.28;;;16.87;47.41
17438;BME280;70275;52.198;5.422;2023-05-24T11:23:52;102371.41;;;16.06;49.63
17438;BME280;70275;52.198;5.422;2023-05-24T11:26:21;102389.47;;;16.45;49.38
17438;BME280;70275;52.198;5.422;2023-05-24T11:28:51;102374.13;;;16.26;49.41
17438;BME280;70275;52.198;5.422;2023-05-24T11:31:26;102385.34;;;15.88;51.20
17438;BME280;70275;52.198;5.422;2023-05-24T11:33:59;102370.94;;;16.12;50.97
17438;BME280;70275;52.198;5.422;2023-05-24T11:36:29;102379.03;;;17.44;48.58
17438;BME280;70275;52.198;5.422;2023-05-24T11:38:58;102370.16;;;16.21;49.67
17438;BME280;70275;52.198;5.422;2023-05-24T11:41:28;102383.06;;;17.59;47.03
17438;BME280;70275;52.198;5.422;2023-05-24T11:43:58;102372.16;;;16.81;48.20
17438;BME280;70275;52.198;5.422;2023-05-24T11:46:27;102378.97;;;17.24;47.87
17438;BME280;70275;52.198;5.422;2023-05-24T11:48:59;102377.34;;;17.92;45.28
17438;BME280;70275;52.198;5.422;2023-05-24T11:51:31;102378.91;;;18.04;44.51
17438;BME280;70275;52.198;5.422;2023-05-24T11:54:02;102384.78;;;18.84;44.27
17438;BME280;70275;52.198;5.422;2023-05-24T11:56:31;102385.63;;;17.60;47.41
17438;BME280;70275;52.198;5.422;2023-05-24T11:59:13;102385.38;;;17.03;48.68
17438;BME280;70275;52.198;5.422;2023-05-24T12:01:43;102374.59;;;15.99;50.25
17438;BME280;70275;52.198;5.422;2023-05-24T12:04:15;102377.69;;;17.59;47.09
17438;BME280;70275;52.198;5.422;2023-05-24T12:06:45;102379.69;;;17.66;46.04
17438;BME280;70275;52.198;5.422;2023-05-24T12:09:15;102363.06;;;16.93;47.93
17438;BME280;70275;52.198;5.422;2023-05-24T12:11:47;102377.06;;;16.55;49.83
17438;BME280;70275;52.198;5.422;2023-05-24T12:14:18;102382.13;;;16.06;50.53
17438;BME280;70275;52.198;5.422;2023-05-24T12:16:48;102363.81;;;16.53;50.03
17438;BME280;70275;52.198;5.422;2023-05-24T12:19:22;102368.06;;;17.47;47.94
17438;BME280;70275;52.198;5.422;2023-05-24T12:21:56;102363.78;;;17.84;47.41
17438;BME280;70275;52.198;5.422;2023-05-24T12:24:26;102363.38;;;18.08;46.52
17438;BME280;70275;52.198;5.422;2023-05-24T12:26:59;102368.84;;;17.58;46.05
17438;BME280;70275;52.198;5.422;2023-05-24T12:29:35;102362.22;;;18.00;46.74
17438;BME280;70275;52.198;5.422;2023-05-24T12:32:06;102357.84;;;17.71;46.85
17438;BME280;70275;52.198;5.422;2023-05-24T12:34:40;102333.94;;;17.49;45.82
17438;BME280;70275;52.198;5.422;2023-05-24T12:37:09;102369.41;;;17.31;46.86
17438;BME280;70275;52.198;5.422;2023-05-24T12:39:38;102370.56;;;17.78;46.41
17438;BME280;70275;52.198;5.422;2023-05-24T12:42:09;102369.31;;;18.01;45.78
17438;BME280;70275;52.198;5.422;2023-05-24T12:44:38;102363.25;;;17.99;45.97
17438;BME280;70275;52.198;5.422;2023-05-24T12:47:09;102360.84;;;18.16;45.49
17438;BME280;70275;52.198;5.422;2023-05-24T12:49:41;102370.50;;;18.93;43.31
17438;BME280;70275;52.198;5.422;2023-05-24T12:52:12;102378.84;;;19.99;42.60
17438;BME280;70275;52.198;5.422;2023-05-24T12:54:41;102370.13;;;18.40;44.79
17438;BME280;70275;52.198;5.422;2023-05-24T12:57:09;102374.38;;;19.08;44.29
17438;BME280;70275;52.198;5.422;2023-05-24T12:59:38;102364.66;;;18.03;45.69
17438;BME280;70275;52.198;5.422;2023-05-24T13:02:07;102373.13;;;19.67;43.26
17438;BME280;70275;52.198;5.422;2023-05-24T13:04:36;102368.47;;;18.30;44.41
17438;BME280;70275;52.198;5.422;2023-05-24T13:07:08;102383.47;;;17.14;46.99
17438;BME280;70275;52.198;5.422;2023-05-24T13:09:37;102373.66;;;17.34;47.72
17438;BME280;70275;52.198;5.422;2023-05-24T13:12:08;102375.53;;;17.13;48.40